sensor_id;sensor_type;location;lat;lon;timestamp;pressure;altitude;pressure_sealevel;temperature;humidity
21555;BME280;10938;44.794;-0.676;2022-12-18T00:00:31;101574.94;;;7.06;100.00
21555;BME280;10938;44.794;-0.676;2022-12-18T00:02:56;101567.28;;;6.88;100.00
21555;BME280;10938;44.794;-0.676;2022-12-18T00:05:22;101561.66;;;6.98;100.00
21555;BME280;10938;44.794;-0.676;2022-12-18T00:07:49;101563.06;;;6.90;100.00
21555;BME280;10938;44.794;-0.676;2022-12-18T00:10:15;101563.16;;;7.57;100.00
21555;BME280;10938;44.794;-0.676;2022-12-18T00:12:40;101561.44;;;7.14;100.00
21555;BME280;10938;44.794;-0.676;2022-12-18T00:15:06;101571.00;;;7.38;100.00
21555;BME280;10938;44.794;-0.676;2022-12-18T00:17:33;101561.69;;;7.20;100.00
21555;BME280;10938;44.794;-0.676;2022-12-18T00:19:59;101572.00;;;7.19;100.00
21555;BME280;10938;44.794;-0.676;2022-12-18T00:22:24;101572.00;;;6.98;100.00
21555;BME280;10938;44.794;-0.676;2022-12-18T00:24:50;101570.63;;;7.06;100.00
21555;BME280;10938;44.794;-0.676;2022-12-18T00:27:17;101575.66;;;7.67;100.00
21555;BME280;10938;44.794;-0.676;2022-12-18T00:29:43;101576.69;;;7.50;100.00
21555;BME280;10938;44.794;-0.676;2022-12-18T00:32:08;101573.03;;;6.81;100.00
21555;BME280;10938;44.794;-0.676;2022-12-18T00:34:33;101569.06;;;6.89;100.00
21555;BME280;10938;44.794;-0.676;2022-12-18T00:36:59;101566.91;;;7.00;100.00
21555;BME280;10938;44.794;-0.676;2022-12-18T00:39:24;101567.06;;;7.25;100.00
21555;BME280;10938;44.794;-0.676;2022-12-18T00:41:50;101571.16;;;7.63;100.00
21555;BME280;10938;44.794;-0.676;2022-12-18T00:44:35;101576.22;;;7.60;100.00
21555;BME280;10938;44.794;-0.676;2022-12-18T00:47:00;101568.47;;;7.17;100.00
21555;BME280;10938;44.794;-0.676;2022-12-18T00:49:26;101570.56;;;6.84;100.00
21555;BME280;10938;44.794;-0.676;2022-12-18T00:51:51;101572.34;;;6.85;100.00
21555;BME280;10938;44.794;-0.676;2022-12-18T00:54:17;101564.34;;;7.01;100.00
21555;BME280;10938;44.794;-0.676;2022-12-18T00:56:43;101564.47;;;6.42;100.00
21555;BME280;10938;44.794;-0.676;2022-12-18T00:59:08;101566.16;;;6.42;100.00
21555;BME280;10938;44.794;-0.676;2022-12-18T01:01:34;101563.22;;;6.74;100.00
21555;BME280;10938;44.794;-0.676;2022-12-18T01:04:01;101568.09;;;6.66;100.00
21555;BME280;10938;44.794;-0.676;2022-12-18T01:06:27;101571.38;;;6.62;100.00
21555;BME280;10938;44.794;-0.676;2022-12-18T01:08:52;101573.66;;;6.96;100.00
21555;BME280;10938;44.794;-0.676;2022-12-18T01:11:19;101570.69;;;6.87;100.00
21555;BME280;10938;44.794;-0.676;2022-12-18T01:13:45;101581.81;;;6.85;100.00
21555;BME280;10938;44.794;-0.676;2022-12-18T01:16:13;101579.16;;;6.83;100.00
21555;BME280;10938;44.794;-0.676;2022-12-18T01:18:39;101586.41;;;6.50;100.00
21555;BME280;10938;44.794;-0.676;2022-12-18T01:21:09;101572.63;;;6.51;100.00
21555;BME280;10938;44.794;-0.676;2022-12-18T01:23:34;101571.31;;;6.82;100.00
21555;BME280;10938;44.794;-0.676;2022-12-18T01:26:08;101588.72;;;6.44;100.00
21555;BME280;10938;44.794;-0.676;2022-12-18T01:28:34;101571.69;;;6.11;100.00
21555;BME280;10938;44.794;-0.676;2022-12-18T01:33:42;101572.44;;;6.67;100.00
21555;BME280;10938;44.794;-0.676;2022-12-18T01:36:08;101573.72;;;6.37;100.00
21555;BME280;10938;44.794;-0.676;2022-12-18T01:38:40;101572.72;;;6.14;100.00
21555;BME280;10938;44.794;-0.676;2022-12-18T01:41:06;101575.84;;;6.46;100.00
21555;BME280;10938;44.794;-0.676;2022-12-18T01:46:18;101572.00;;;6.38;100.00
21555;BME280;10938;44.794;-0.676;2022-12-18T01:48:46;101567.97;;;6.24;100.00
21555;BME280;10938;44.794;-0.676;2022-12-18T01:51:13;101573.03;;;6.81;100.00
21555;BME280;10938;44.794;-0.676;2022-12-18T01:53:41;101579.06;;;6.61;100.00
21555;BME280;10938;44.794;-0.676;2022-12-18T01:56:06;101580.53;;;6.35;100.00
21555;BME280;10938;44.794;-0.676;2022-12-18T02:04:31;101578.31;;;6.04;100.00
21555;BME280;10938;44.794;-0.676;2022-12-18T02:07:28;101574.47;;;6.35;100.00
21555;BME280;10938;44.794;-0.676;2022-12-18T02:10:15;101571.75;;;6.32;100.00
21555;BME280;10938;44.794;-0.676;2022-12-18T02:15:51;101589.34;;;6.00;100.00
21555;BME280;10938;44.794;-0.676;2022-12-18T02:18:24;101582.38;;;6.57;100.00
21555;BME280;10938;44.794;-0.676;2022-12-18T02:20:57;101582.97;;;6.51;100.00
21555;BME280;10938;44.794;-0.676;2022-12-18T02:26:36;101574.69;;;6.39;100.00
21555;BME280;10938;44.794;-0.676;2022-12-18T02:29:08;101575.38;;;6.96;100.00
21555;BME280;10938;44.794;-0.676;2022-12-18T02:31:39;101580.22;;;7.09;100.00
21555;BME280;10938;44.794;-0.676;2022-12-18T02:34:08;101581.16;;;6.10;100.00
21555;BME280;10938;44.794;-0.676;2022-12-18T02:36:36;101575.22;;;6.51;100.00
21555;BME280;10938;44.794;-0.676;2022-12-18T02:39:05;101580.19;;;6.87;100.00
21555;BME280;10938;44.794;-0.676;2022-12-18T02:41:32;101569.44;;;6.38;100.00
21555;BME280;10938;44.794;-0.676;2022-12-18T02:44:00;101579.50;;;6.51;100.00
21555;BME280;10938;44.794;-0.676;2022-12-18T02:46:33;101574.81;;;6.42;100.00
21555;BME280;10938;44.794;-0.676;2022-12-18T02:49:34;101566.97;;;6.60;100.00
21555;BME280;10938;44.794;-0.676;2022-12-18T02:57:58;101566.72;;;6.35;100.00
21555;BME280;10938;44.794;-0.676;2022-12-18T03:00:41;101558.19;;;6.77;100.00
21555;BME280;10938;44.794;-0.676;2022-12-18T03:03:39;101571.50;;;6.65;100.00
21555;BME280;10938;44.794;-0.676;2022-12-18T03:06:10;101563.69;;;6.45;100.00
21555;BME280;10938;44.794;-0.676;2022-12-18T03:08:41;101566.88;;;6.58;100.00
21555;BME280;10938;44.794;-0.676;2022-12-18T03:11:09;101566.84;;;6.38;100.00
21555;BME280;10938;44.794;-0.676;2022-12-18T03:13:52;101557.72;;;6.46;100.00
21555;BME280;10938;44.794;-0.676;2022-12-18T03:16:27;101561.19;;;6.46;100.00
21555;BME280;10938;44.794;-0.676;2022-12-18T03:19:07;101551.19;;;6.15;100.00
21555;BME280;10938;44.794;-0.676;2022-12-18T03:21:44;101556.44;;;6.36;100.00
21555;BME280;10938;44.794;-0.676;2022-12-18T03:24:11;101549.25;;;6.50;100.00
21555;BME280;10938;44.794;-0.676;2022-12-18T03:26:41;101555.94;;;6.45;100.00
21555;BME280;10938;44.794;-0.676;2022-12-18T03:29:14;101554.00;;;6.60;100.00
21555;BME280;10938;44.794;-0.676;2022-12-18T03:31:47;101557.91;;;6.71;100.00
21555;BME280;10938;44.794;-0.676;2022-12-18T03:34:19;101558.06;;;6.15;100.00
21555;BME280;10938;44.794;-0.676;2022-12-18T03:36:46;101565.94;;;6.37;100.00
21555;BME280;10938;44.794;-0.676;2022-12-18T03:39:12;101574.97;;;6.66;100.00
21555;BME280;10938;44.794;-0.676;2022-12-18T03:41:51;101576.56;;;7.04;100.00
21555;BME280;10938;44.794;-0.676;2022-12-18T03:47:15;101577.25;;;6.58;100.00
21555;BME280;10938;44.794;-0.676;2022-12-18T03:49:58;101582.16;;;6.52;100.00
21555;BME280;10938;44.794;-0.676;2022-12-18T03:52:30;101586.75;;;6.39;100.00
21555;BME280;10938;44.794;-0.676;2022-12-18T03:54:59;101591.94;;;6.39;100.00
21555;BME280;10938;44.794;-0.676;2022-12-18T03:57:28;101579.34;;;6.27;100.00
21555;BME280;10938;44.794;-0.676;2022-12-18T03:59:57;101589.31;;;6.58;100.00
21555;BME280;10938;44.794;-0.676;2022-12-18T04:02:25;101582.53;;;6.21;100.00
21555;BME280;10938;44.794;-0.676;2022-12-18T04:04:57;101585.03;;;6.39;100.00
21555;BME280;10938;44.794;-0.676;2022-12-18T04:07:24;101593.56;;;6.17;100.00
21555;BME280;10938;44.794;-0.676;2022-12-18T04:09:52;101594.81;;;6.26;100.00
21555;BME280;10938;44.794;-0.676;2022-12-18T04:12:19;101598.03;;;6.41;100.00
21555;BME280;10938;44.794;-0.676;2022-12-18T04:14:44;101611.09;;;6.82;100.00
21555;BME280;10938;44.794;-0.676;2022-12-18T04:17:10;101610.59;;;6.12;100.00
21555;BME280;10938;44.794;-0.676;2022-12-18T04:19:35;101619.66;;;6.03;100.00
21555;BME280;10938;44.794;-0.676;2022-12-18T04:22:01;101621.34;;;6.41;100.00
21555;BME280;10938;44.794;-0.676;2022-12-18T04:24:27;101627.44;;;6.60;100.00
21555;BME280;10938;44.794;-0.676;2022-12-18T04:26:53;101630.13;;;7.03;100.00
21555;BME280;10938;44.794;-0.676;2022-12-18T04:29:18;101639.34;;;6.76;100.00
21555;BME280;10938;44.794;-0.676;2022-12-18T04:31:44;101643.72;;;6.77;100.00
21555;BME280;10938;44.794;-0.676;2022-12-18T04:34:09;101641.31;;;6.62;100.00
21555;BME280;10938;44.794;-0.676;2022-12-18T04:36:34;101644.59;;;6.58;100.00
21555;BME280;10938;44.794;-0.676;2022-12-18T04:39:00;101642.56;;;6.32;100.00
21555;BME280;10938;44.794;-0.676;2022-12-18T04:41:25;101634.78;;;6.51;100.00
21555;BME280;10938;44.794;-0.676;2022-12-18T04:43:51;101637.28;;;6.69;100.00
21555;BME280;10938;44.794;-0.676;2022-12-18T04:46:16;101635.50;;;6.10;100.00
21555;BME280;10938;44.794;-0.676;2022-12-18T04:48:42;101638.81;;;6.26;100.00
21555;BME280;10938;44.794;-0.676;2022-12-18T04:51:10;101647.19;;;6.39;100.00
21555;BME280;10938;44.794;-0.676;2022-12-18T04:53:35;101646.81;;;5.93;100.00
21555;BME280;10938;44.794;-0.676;2022-12-18T04:56:06;101656.13;;;6.27;100.00
21555;BME280;10938;44.794;-0.676;2022-12-18T04:58:32;101645.38;;;6.37;100.00
21555;BME280;10938;44.794;-0.676;2022-12-18T05:00:57;101635.19;;;6.22;100.00
21555;BME280;10938;44.794;-0.676;2022-12-18T05:03:23;101648.94;;;5.84;100.00
21555;BME280;10938;44.794;-0.676;2022-12-18T05:05:50;101650.94;;;5.72;100.00
21555;BME280;10938;44.794;-0.676;2022-12-18T05:08:16;101639.19;;;5.96;100.00
21555;BME280;10938;44.794;-0.676;2022-12-18T05:10:41;101643.44;;;6.13;100.00
21555;BME280;10938;44.794;-0.676;2022-12-18T05:13:06;101641.53;;;5.74;100.00
21555;BME280;10938;44.794;-0.676;2022-12-18T05:15:32;101629.88;;;6.00;100.00
21555;BME280;10938;44.794;-0.676;2022-12-18T05:17:59;101630.53;;;5.60;100.00
21555;BME280;10938;44.794;-0.676;2022-12-18T05:20:26;101630.91;;;6.03;100.00
21555;BME280;10938;44.794;-0.676;2022-12-18T05:22:52;101628.84;;;5.61;100.00
21555;BME280;10938;44.794;-0.676;2022-12-18T05:25:19;101638.28;;;5.78;100.00
21555;BME280;10938;44.794;-0.676;2022-12-18T05:27:45;101633.16;;;6.15;100.00
21555;BME280;10938;44.794;-0.676;2022-12-18T05:30:11;101642.44;;;5.92;100.00
21555;BME280;10938;44.794;-0.676;2022-12-18T05:32:37;101634.13;;;6.17;100.00
21555;BME280;10938;44.794;-0.676;2022-12-18T05:35:04;101632.31;;;5.79;100.00
21555;BME280;10938;44.794;-0.676;2022-12-18T05:37:30;101632.88;;;6.28;100.00
21555;BME280;10938;44.794;-0.676;2022-12-18T05:39:55;101640.09;;;5.97;100.00
21555;BME280;10938;44.794;-0.676;2022-12-18T05:42:21;101640.53;;;5.88;100.00
21555;BME280;10938;44.794;-0.676;2022-12-18T05:44:46;101634.47;;;5.70;100.00
21555;BME280;10938;44.794;-0.676;2022-12-18T05:47:12;101637.72;;;5.84;100.00
21555;BME280;10938;44.794;-0.676;2022-12-18T05:49:38;101634.88;;;6.34;100.00
21555;BME280;10938;44.794;-0.676;2022-12-18T05:52:03;101635.41;;;6.27;100.00
21555;BME280;10938;44.794;-0.676;2022-12-18T05:54:29;101638.81;;;6.26;100.00
21555;BME280;10938;44.794;-0.676;2022-12-18T05:56:54;101639.34;;;6.38;100.00
21555;BME280;10938;44.794;-0.676;2022-12-18T05:59:20;101644.13;;;6.67;100.00
21555;BME280;10938;44.794;-0.676;2022-12-18T06:01:45;101648.78;;;5.99;100.00
21555;BME280;10938;44.794;-0.676;2022-12-18T06:04:11;101631.28;;;6.51;100.00
21555;BME280;10938;44.794;-0.676;2022-12-18T06:06:38;101644.00;;;6.26;100.00
21555;BME280;10938;44.794;-0.676;2022-12-18T06:09:03;101638.28;;;6.33;100.00
21555;BME280;10938;44.794;-0.676;2022-12-18T06:11:34;101631.84;;;6.63;100.00
21555;BME280;10938;44.794;-0.676;2022-12-18T06:14:00;101646.78;;;6.49;100.00
21555;BME280;10938;44.794;-0.676;2022-12-18T06:16:28;101638.47;;;6.56;100.00
21555;BME280;10938;44.794;-0.676;2022-12-18T06:19:01;101639.91;;;6.50;100.00
21555;BME280;10938;44.794;-0.676;2022-12-18T06:21:28;101630.69;;;6.18;100.00
21555;BME280;10938;44.794;-0.676;2022-12-18T06:23:53;101624.84;;;6.41;100.00
21555;BME280;10938;44.794;-0.676;2022-12-18T06:26:19;101636.81;;;6.98;100.00
21555;BME280;10938;44.794;-0.676;2022-12-18T06:28:45;101653.84;;;6.72;100.00
21555;BME280;10938;44.794;-0.676;2022-12-18T06:31:11;101637.59;;;6.37;100.00
21555;BME280;10938;44.794;-0.676;2022-12-18T06:33:37;101630.47;;;6.71;100.00
21555;BME280;10938;44.794;-0.676;2022-12-18T06:36:09;101631.47;;;6.94;100.00
21555;BME280;10938;44.794;-0.676;2022-12-18T06:38:37;101641.22;;;7.01;100.00
21555;BME280;10938;44.794;-0.676;2022-12-18T06:41:16;101633.53;;;7.02;100.00
21555;BME280;10938;44.794;-0.676;2022-12-18T06:43:43;101643.50;;;7.35;100.00
21555;BME280;10938;44.794;-0.676;2022-12-18T06:46:09;101654.16;;;7.20;100.00
21555;BME280;10938;44.794;-0.676;2022-12-18T06:48:35;101651.31;;;6.93;100.00
21555;BME280;10938;44.794;-0.676;2022-12-18T06:51:01;101651.56;;;6.99;100.00
21555;BME280;10938;44.794;-0.676;2022-12-18T06:53:26;101652.00;;;6.89;100.00
21555;BME280;10938;44.794;-0.676;2022-12-18T06:55:52;101656.94;;;7.24;100.00
21555;BME280;10938;44.794;-0.676;2022-12-18T06:58:18;101659.97;;;7.35;100.00
21555;BME280;10938;44.794;-0.676;2022-12-18T07:00:43;101648.97;;;7.20;100.00
21555;BME280;10938;44.794;-0.676;2022-12-18T07:03:09;101647.69;;;6.90;100.00
21555;BME280;10938;44.794;-0.676;2022-12-18T07:05:39;101658.97;;;7.32;100.00
21555;BME280;10938;44.794;-0.676;2022-12-18T07:08:04;101654.97;;;7.40;100.00
21555;BME280;10938;44.794;-0.676;2022-12-18T07:10:30;101646.00;;;6.90;100.00
21555;BME280;10938;44.794;-0.676;2022-12-18T07:12:55;101633.66;;;7.26;100.00
21555;BME280;10938;44.794;-0.676;2022-12-18T07:15:21;101640.31;;;7.40;100.00
21555;BME280;10938;44.794;-0.676;2022-12-18T07:17:46;101630.47;;;7.54;100.00
21555;BME280;10938;44.794;-0.676;2022-12-18T07:20:12;101627.94;;;7.35;100.00
21555;BME280;10938;44.794;-0.676;2022-12-18T07:22:38;101633.13;;;7.77;100.00
21555;BME280;10938;44.794;-0.676;2022-12-18T07:25:03;101624.06;;;7.03;100.00
21555;BME280;10938;44.794;-0.676;2022-12-18T07:27:29;101626.47;;;7.19;100.00
21555;BME280;10938;44.794;-0.676;2022-12-18T07:29:54;101624.53;;;6.94;100.00
21555;BME280;10938;44.794;-0.676;2022-12-18T07:32:20;101638.22;;;6.71;100.00
21555;BME280;10938;44.794;-0.676;2022-12-18T07:34:45;101633.81;;;6.68;100.00
21555;BME280;10938;44.794;-0.676;2022-12-18T07:37:11;101633.41;;;6.99;100.00
21555;BME280;10938;44.794;-0.676;2022-12-18T07:39:36;101641.13;;;7.18;100.00
21555;BME280;10938;44.794;-0.676;2022-12-18T07:42:02;101656.00;;;7.43;100.00
21555;BME280;10938;44.794;-0.676;2022-12-18T07:44:46;101660.50;;;7.27;100.00
21555;BME280;10938;44.794;-0.676;2022-12-18T07:47:11;101661.66;;;7.35;100.00
21555;BME280;10938;44.794;-0.676;2022-12-18T07:49:37;101661.06;;;7.40;100.00
21555;BME280;10938;44.794;-0.676;2022-12-18T07:52:02;101684.97;;;7.97;100.00
21555;BME280;10938;44.794;-0.676;2022-12-18T07:54:28;101671.56;;;7.86;100.00
21555;BME280;10938;44.794;-0.676;2022-12-18T07:56:53;101671.72;;;7.48;100.00
21555;BME280;10938;44.794;-0.676;2022-12-18T07:59:19;101676.50;;;8.02;100.00
21555;BME280;10938;44.794;-0.676;2022-12-18T08:01:44;101679.06;;;7.58;100.00
21555;BME280;10938;44.794;-0.676;2022-12-18T08:04:09;101681.69;;;7.80;100.00
21555;BME280;10938;44.794;-0.676;2022-12-18T08:06:35;101680.50;;;7.94;100.00
21555;BME280;10938;44.794;-0.676;2022-12-18T08:09:01;101682.22;;;7.71;100.00
21555;BME280;10938;44.794;-0.676;2022-12-18T08:11:27;101689.84;;;8.11;100.00
21555;BME280;10938;44.794;-0.676;2022-12-18T08:13:54;101691.81;;;7.74;100.00
21555;BME280;10938;44.794;-0.676;2022-12-18T08:16:20;101699.75;;;7.99;100.00
21555;BME280;10938;44.794;-0.676;2022-12-18T08:18:46;101704.97;;;8.67;100.00
21555;BME280;10938;44.794;-0.676;2022-12-18T08:21:26;101702.13;;;8.60;100.00
21555;BME280;10938;44.794;-0.676;2022-12-18T08:23:54;101696.34;;;8.45;100.00
21555;BME280;10938;44.794;-0.676;2022-12-18T08:26:21;101696.34;;;9.17;100.00
21555;BME280;10938;44.794;-0.676;2022-12-18T08:28:47;101702.59;;;9.22;100.00
21555;BME280;10938;44.794;-0.676;2022-12-18T08:31:13;101701.44;;;8.89;100.00
21555;BME280;10938;44.794;-0.676;2022-12-18T08:33:39;101694.22;;;9.06;100.00
21555;BME280;10938;44.794;-0.676;2022-12-18T08:36:05;101687.03;;;8.73;100.00
21555;BME280;10938;44.794;-0.676;2022-12-18T08:38:32;101677.03;;;8.86;100.00
21555;BME280;10938;44.794;-0.676;2022-12-18T08:41:03;101678.31;;;8.97;100.00
21555;BME280;10938;44.794;-0.676;2022-12-18T08:43:28;101659.84;;;9.41;100.00
21555;BME280;10938;44.794;-0.676;2022-12-18T08:46:16;101671.13;;;8.90;100.00
21555;BME280;10938;44.794;-0.676;2022-12-18T08:48:42;101671.09;;;9.13;100.00
21555;BME280;10938;44.794;-0.676;2022-12-18T08:51:07;101668.34;;;9.36;100.00
21555;BME280;10938;44.794;-0.676;2022-12-18T08:53:35;101672.91;;;9.16;100.00
21555;BME280;10938;44.794;-0.676;2022-12-18T08:56:01;101668.19;;;9.31;100.00
21555;BME280;10938;44.794;-0.676;2022-12-18T08:58:26;101676.84;;;9.05;100.00
21555;BME280;10938;44.794;-0.676;2022-12-18T09:00:52;101672.00;;;8.90;100.00
21555;BME280;10938;44.794;-0.676;2022-12-18T09:03:18;101681.75;;;9.48;100.00
21555;BME280;10938;44.794;-0.676;2022-12-18T09:05:46;101681.38;;;9.62;100.00
21555;BME280;10938;44.794;-0.676;2022-12-18T09:08:12;101686.53;;;9.61;100.00
21555;BME280;10938;44.794;-0.676;2022-12-18T09:10:43;101693.59;;;9.92;100.00
21555;BME280;10938;44.794;-0.676;2022-12-18T09:13:10;101694.66;;;9.98;100.00
21555;BME280;10938;44.794;-0.676;2022-12-18T09:15:44;101678.88;;;9.65;100.00
21555;BME280;10938;44.794;-0.676;2022-12-18T09:18:11;101686.94;;;9.46;100.00
21555;BME280;10938;44.794;-0.676;2022-12-18T09:20:37;101682.13;;;9.58;100.00
21555;BME280;10938;44.794;-0.676;2022-12-18T09:23:04;101678.00;;;9.65;100.00
21555;BME280;10938;44.794;-0.676;2022-12-18T09:25:30;101688.81;;;9.77;100.00
21555;BME280;10938;44.794;-0.676;2022-12-18T09:28:18;101693.16;;;9.78;100.00
21555;BME280;10938;44.794;-0.676;2022-12-18T09:30:48;101679.50;;;10.40;100.00
21555;BME280;10938;44.794;-0.676;2022-12-18T09:33:15;101682.97;;;10.12;100.00
21555;BME280;10938;44.794;-0.676;2022-12-18T09:35:42;101696.75;;;9.81;100.00
21555;BME280;10938;44.794;-0.676;2022-12-18T09:38:12;101691.91;;;10.49;100.00
21555;BME280;10938;44.794;-0.676;2022-12-18T09:40:45;101706.34;;;9.56;100.00
21555;BME280;10938;44.794;-0.676;2022-12-18T09:44:10;101689.44;;;9.43;100.00
21555;BME280;10938;44.794;-0.676;2022-12-18T09:46:16;101685.31;;;9.76;100.00
21555;BME280;10938;44.794;-0.676;2022-12-18T09:48:45;101678.34;;;10.30;100.00
21555;BME280;10938;44.794;-0.676;2022-12-18T09:51:23;101673.56;;;10.16;100.00
21555;BME280;10938;44.794;-0.676;2022-12-18T09:53:58;101690.41;;;10.27;100.00
21555;BME280;10938;44.794;-0.676;2022-12-18T09:56:28;101704.53;;;10.35;100.00
21555;BME280;10938;44.794;-0.676;2022-12-18T09:58:59;101690.50;;;10.61;100.00
21555;BME280;10938;44.794;-0.676;2022-12-18T10:01:26;101697.56;;;10.64;100.00
21555;BME280;10938;44.794;-0.676;2022-12-18T10:03:53;101706.56;;;11.06;100.00
21555;BME280;10938;44.794;-0.676;2022-12-18T10:06:42;101701.34;;;11.06;100.00
21555;BME280;10938;44.794;-0.676;2022-12-18T10:12:38;101719.31;;;11.28;100.00
21555;BME280;10938;44.794;-0.676;2022-12-18T10:15:35;101710.44;;;11.22;100.00
21555;BME280;10938;44.794;-0.676;2022-12-18T10:25:55;101705.28;;;11.92;100.00
21555;BME280;10938;44.794;-0.676;2022-12-18T10:28:25;101714.16;;;10.99;100.00
21555;BME280;10938;44.794;-0.676;2022-12-18T10:30:51;101714.31;;;11.37;100.00
21555;BME280;10938;44.794;-0.676;2022-12-18T10:33:22;101713.28;;;10.98;100.00
21555;BME280;10938;44.794;-0.676;2022-12-18T10:35:50;101710.53;;;11.59;100.00
21555;BME280;10938;44.794;-0.676;2022-12-18T10:40:57;101708.91;;;11.64;100.00
21555;BME280;10938;44.794;-0.676;2022-12-18T10:43:32;101719.03;;;11.85;100.00
21555;BME280;10938;44.794;-0.676;2022-12-18T10:48:23;101699.13;;;11.90;100.00
21555;BME280;10938;44.794;-0.676;2022-12-18T10:50:50;101681.47;;;12.19;100.00
21555;BME280;10938;44.794;-0.676;2022-12-18T10:53:22;101694.88;;;11.95;100.00
21555;BME280;10938;44.794;-0.676;2022-12-18T10:55:49;101675.50;;;12.66;100.00
21555;BME280;10938;44.794;-0.676;2022-12-18T10:58:26;101685.00;;;12.61;100.00
21555;BME280;10938;44.794;-0.676;2022-12-18T11:01:15;101680.94;;;13.20;100.00
21555;BME280;10938;44.794;-0.676;2022-12-18T11:03:42;101680.28;;;12.87;100.00
21555;BME280;10938;44.794;-0.676;2022-12-18T11:06:19;101684.25;;;13.12;100.00
21555;BME280;10938;44.794;-0.676;2022-12-18T11:09:19;101678.63;;;13.38;100.00
21555;BME280;10938;44.794;-0.676;2022-12-18T11:11:52;101670.81;;;13.40;100.00
21555;BME280;10938;44.794;-0.676;2022-12-18T11:14:25;101661.97;;;12.87;100.00
21555;BME280;10938;44.794;-0.676;2022-12-18T11:16:52;101663.97;;;13.02;100.00
21555;BME280;10938;44.794;-0.676;2022-12-18T11:19:38;101663.84;;;13.42;100.00
21555;BME280;10938;44.794;-0.676;2022-12-18T11:22:27;101653.41;;;13.45;100.00
21555;BME280;10938;44.794;-0.676;2022-12-18T11:25:17;101646.16;;;13.83;100.00
21555;BME280;10938;44.794;-0.676;2022-12-18T11:27:49;101658.25;;;13.22;100.00
21555;BME280;10938;44.794;-0.676;2022-12-18T11:30:26;101650.72;;;14.62;100.00
21555;BME280;10938;44.794;-0.676;2022-12-18T11:38:37;101643.41;;;14.38;100.00
21555;BME280;10938;44.794;-0.676;2022-12-18T11:41:21;101646.50;;;14.07;100.00
21555;BME280;10938;44.794;-0.676;2022-12-18T11:44:13;101650.16;;;13.60;100.00
21555;BME280;10938;44.794;-0.676;2022-12-18T11:46:48;101627.97;;;13.93;100.00
21555;BME280;10938;44.794;-0.676;2022-12-18T11:49:27;101627.31;;;14.80;100.00
21555;BME280;10938;44.794;-0.676;2022-12-18T11:54:40;101631.06;;;15.08;100.00
21555;BME280;10938;44.794;-0.676;2022-12-18T11:57:29;101628.34;;;14.99;100.00
21555;BME280;10938;44.794;-0.676;2022-12-18T12:11:06;101631.59;;;15.70;100.00
21555;BME280;10938;44.794;-0.676;2022-12-18T12:19:10;101626.81;;;16.63;98.74
21555;BME280;10938;44.794;-0.676;2022-12-18T12:21:37;101628.44;;;16.30;99.13
21555;BME280;10938;44.794;-0.676;2022-12-18T12:24:42;101629.50;;;16.99;98.54
21555;BME280;10938;44.794;-0.676;2022-12-18T12:27:18;101634.63;;;16.49;99.05
21555;BME280;10938;44.794;-0.676;2022-12-18T12:30:10;101632.69;;;16.12;99.03
21555;BME280;10938;44.794;-0.676;2022-12-18T12:35:46;101631.81;;;16.11;100.00
21555;BME280;10938;44.794;-0.676;2022-12-18T12:38:19;101626.88;;;17.02;97.23
21555;BME280;10938;44.794;-0.676;2022-12-18T12:40:52;101629.38;;;16.54;97.13
21555;BME280;10938;44.794;-0.676;2022-12-18T12:46:11;101623.31;;;16.71;97.28
21555;BME280;10938;44.794;-0.676;2022-12-18T12:53:43;101607.53;;;16.88;97.40
21555;BME280;10938;44.794;-0.676;2022-12-18T12:56:13;101616.16;;;16.37;98.70
21555;BME280;10938;44.794;-0.676;2022-12-18T12:59:02;101604.06;;;17.10;96.81
21555;BME280;10938;44.794;-0.676;2022-12-18T13:09:12;101606.69;;;17.52;93.53
21555;BME280;10938;44.794;-0.676;2022-12-18T13:11:47;101611.94;;;17.06;93.21
21555;BME280;10938;44.794;-0.676;2022-12-18T13:20:10;101572.41;;;17.39;93.65
21555;BME280;10938;44.794;-0.676;2022-12-18T13:25:03;101573.25;;;17.79;91.90
21555;BME280;10938;44.794;-0.676;2022-12-18T13:38:33;101566.16;;;17.93;92.05
21555;BME280;10938;44.794;-0.676;2022-12-18T13:41:02;101563.63;;;17.43;92.51
21555;BME280;10938;44.794;-0.676;2022-12-18T13:49:06;101553.09;;;16.75;93.78
21555;BME280;10938;44.794;-0.676;2022-12-18T13:51:44;101546.09;;;17.07;94.18
21555;BME280;10938;44.794;-0.676;2022-12-18T13:54:28;101547.84;;;17.14;93.91
21555;BME280;10938;44.794;-0.676;2022-12-18T13:56:55;101543.28;;;17.95;91.66
21555;BME280;10938;44.794;-0.676;2022-12-18T13:59:23;101538.88;;;18.05;90.40
21555;BME280;10938;44.794;-0.676;2022-12-18T14:01:57;101543.84;;;18.62;89.28
21555;BME280;10938;44.794;-0.676;2022-12-18T14:04:31;101543.38;;;17.72;91.32
21555;BME280;10938;44.794;-0.676;2022-12-18T14:07:19;101546.84;;;17.82;91.25
21555;BME280;10938;44.794;-0.676;2022-12-18T14:09:49;101549.44;;;17.98;91.46
21555;BME280;10938;44.794;-0.676;2022-12-18T14:12:21;101546.00;;;17.77;90.81
21555;BME280;10938;44.794;-0.676;2022-12-18T14:15:16;101543.44;;;17.25;92.28
21555;BME280;10938;44.794;-0.676;2022-12-18T14:17:46;101541.69;;;17.03;93.10
21555;BME280;10938;44.794;-0.676;2022-12-18T14:20:14;101532.84;;;17.52;92.09
21555;BME280;10938;44.794;-0.676;2022-12-18T14:22:44;101525.03;;;16.96;94.27
21555;BME280;10938;44.794;-0.676;2022-12-18T14:25:18;101527.63;;;16.72;95.73
21555;BME280;10938;44.794;-0.676;2022-12-18T14:27:53;101529.38;;;17.57;92.42
21555;BME280;10938;44.794;-0.676;2022-12-18T14:30:30;101524.53;;;18.48;89.47
21555;BME280;10938;44.794;-0.676;2022-12-18T14:35:26;101544.31;;;17.44;93.22
21555;BME280;10938;44.794;-0.676;2022-12-18T14:37:52;101536.34;;;17.55;92.31
21555;BME280;10938;44.794;-0.676;2022-12-18T14:40:18;101544.06;;;18.20;90.36
21555;BME280;10938;44.794;-0.676;2022-12-18T14:42:43;101549.69;;;19.02;87.76
21555;BME280;10938;44.794;-0.676;2022-12-18T14:45:44;101552.81;;;18.34;88.44